Terminal Aerodrome Forecast
Issued by NWS Jackson, MS

Home | Current Version | Previous Version | Text Only | Print | Product List | Glossary On
Versions: 1 2 3 4 5 6 7 8 9 10 11 12 13 14
691
FTUS44 KJAN 281753
TAFMEI
TAF
KMEI 281753Z 2818/2918 17013G17KT P6SM BKN070
     FM282200 20012KT P6SM VCTS BKN050CB
     FM290200 21005KT P6SM BKN100
     FM290600 18004KT P6SM BKN070
     FM290900 19005KT 6SM BR VCSH BKN025=

USA.gov is the U.S. government's official web portal to all federal, state and local government web resources and services.